createdAt,value
2022-10-13T00:00:34.381Z,5.83
2022-10-13T00:03:22.708Z,11.97
2022-10-13T00:06:11.215Z,7.63
2022-10-13T00:08:59.593Z,10.47
2022-10-13T00:11:46.133Z,8.57
2022-10-13T00:14:32.991Z,7.83
2022-10-13T00:17:19.881Z,9.40
2022-10-13T00:20:08.819Z,9.97
2022-10-13T00:22:55.290Z,10.63
2022-10-13T00:25:43.332Z,6.93
2022-10-13T00:28:30.247Z,5.60
2022-10-13T00:31:18.945Z,9.63
2022-10-13T00:34:05.678Z,7.23
2022-10-13T00:36:53.586Z,9.47
2022-10-13T00:39:40.443Z,8.80
2022-10-13T00:42:27.258Z,8.47
2022-10-13T00:45:23.531Z,5.80
2022-10-13T00:48:10.500Z,7.37
2022-10-13T00:50:59.308Z,11.37
2022-10-13T00:53:49.104Z,7.87
2022-10-13T00:56:37.601Z,7.57
2022-10-13T00:59:29.042Z,8.93
2022-10-13T01:02:16.142Z,11.30
2022-10-13T01:05:05.014Z,5.77
2022-10-13T01:07:52.635Z,6.73
2022-10-13T01:10:50.312Z,11.77
2022-10-13T01:13:43.633Z,6.37
2022-10-13T01:16:40.845Z,7.47
2022-10-13T01:19:45.887Z,6.93
2022-10-13T01:22:49.892Z,5.67
2022-10-13T01:25:55.197Z,6.53
2022-10-13T01:29:03.300Z,7.87
2022-10-13T01:32:00.240Z,12.77
2022-10-13T01:34:53.964Z,10.60
2022-10-13T01:37:47.027Z,7.40
2022-10-13T01:40:41.017Z,8.03
2022-10-13T01:43:32.056Z,8.80
2022-10-13T01:46:23.953Z,9.97
2022-10-13T01:49:15.861Z,6.17
2022-10-13T01:52:05.476Z,9.07
2022-10-13T01:54:52.943Z,10.77
2022-10-13T01:57:42.533Z,8.67
2022-10-13T02:00:32.639Z,8.47
2022-10-13T02:03:24.584Z,8.93
2022-10-13T02:06:19.439Z,14.13
2022-10-13T02:09:12.159Z,10.07
2022-10-13T02:12:03.141Z,10.83
2022-10-13T02:14:51.906Z,8.83
2022-10-13T02:17:38.407Z,11.80
2022-10-13T02:20:25.101Z,9.30
2022-10-13T02:23:16.324Z,11.03
2022-10-13T02:26:03.514Z,14.67
2022-10-13T02:28:50.376Z,8.90
2022-10-13T02:31:36.842Z,13.27
2022-10-13T02:34:23.419Z,13.17
2022-10-13T02:37:10.288Z,11.93
2022-10-13T02:39:58.097Z,11.20
2022-10-13T02:42:45.235Z,11.60
2022-10-13T02:45:31.748Z,11.70
2022-10-13T02:48:18.126Z,10.73
2022-10-13T02:51:04.892Z,9.27
2022-10-13T02:53:51.473Z,11.60
2022-10-13T02:56:39.295Z,12.83
2022-10-13T02:59:25.983Z,13.20
2022-10-13T03:02:12.610Z,9.33
2022-10-13T03:04:59.085Z,11.53
2022-10-13T03:07:45.849Z,9.20
2022-10-13T03:10:33.161Z,11.67
2022-10-13T03:13:21.383Z,10.47
2022-10-13T03:16:08.000Z,12.13
2022-10-13T03:18:54.483Z,12.30
2022-10-13T03:21:41.290Z,15.13
2022-10-13T03:24:28.035Z,15.10
2022-10-13T03:27:14.534Z,12.47
2022-10-13T03:30:02.595Z,14.97
2022-10-13T03:32:48.920Z,10.43
2022-10-13T03:35:35.296Z,16.60
2022-10-13T03:38:21.899Z,11.70
2022-10-13T03:41:09.629Z,9.13
2022-10-13T03:43:56.117Z,14.13
2022-10-13T03:46:44.646Z,12.47
2022-10-13T03:49:30.987Z,11.07
2022-10-13T03:52:17.868Z,12.07
2022-10-13T03:55:05.626Z,15.93
2022-10-13T03:57:52.484Z,12.80
2022-10-13T04:00:38.876Z,10.83
2022-10-13T04:03:26.828Z,15.00
2022-10-13T04:06:13.693Z,19.57
2022-10-13T04:09:00.131Z,16.17
2022-10-13T04:11:46.592Z,15.67
2022-10-13T04:14:33.169Z,18.03
2022-10-13T04:17:19.528Z,13.40
2022-10-13T04:20:08.800Z,13.83
2022-10-13T04:22:55.719Z,11.77
2022-10-13T04:25:42.179Z,11.23
2022-10-13T04:28:28.612Z,9.47
2022-10-13T04:31:15.637Z,12.43
2022-10-13T04:34:02.601Z,9.93
2022-10-13T04:36:52.508Z,12.80
2022-10-13T04:39:39.180Z,12.73
2022-10-13T04:42:25.654Z,14.03
2022-10-13T04:45:12.357Z,10.00
2022-10-13T04:47:58.945Z,10.57
2022-10-13T04:50:45.472Z,14.23
2022-10-13T04:53:33.891Z,17.17
2022-10-13T04:56:20.310Z,11.30
2022-10-13T04:59:06.844Z,13.50
2022-10-13T05:01:53.310Z,13.63
2022-10-13T05:04:39.934Z,11.73
2022-10-13T05:07:26.583Z,14.17
2022-10-13T05:10:14.915Z,13.03
2022-10-13T05:13:01.725Z,9.70
2022-10-13T05:15:48.231Z,13.73
2022-10-13T05:18:34.909Z,13.37
2022-10-13T05:21:23.418Z,14.63
2022-10-13T05:24:13.508Z,16.27
2022-10-13T05:27:01.652Z,14.87
2022-10-13T05:29:48.448Z,11.83
2022-10-13T05:32:36.589Z,18.20
2022-10-13T05:35:23.182Z,17.77
2022-10-13T05:38:10.199Z,12.53
2022-10-13T05:40:56.612Z,10.27
2022-10-13T05:43:44.536Z,17.27
2022-10-13T05:46:31.596Z,14.70
2022-10-13T05:49:18.315Z,14.80
2022-10-13T05:52:08.204Z,16.47
2022-10-13T05:54:57.631Z,11.83
2022-10-13T05:57:46.899Z,12.73
2022-10-13T06:00:35.297Z,14.00
2022-10-13T06:03:24.412Z,16.00
2022-10-13T06:06:11.257Z,17.00
2022-10-13T06:08:57.796Z,12.97
2022-10-13T06:11:44.612Z,18.80
2022-10-13T06:14:30.945Z,14.67
2022-10-13T06:17:18.768Z,14.77
2022-10-13T06:20:06.620Z,12.00
2022-10-13T06:22:53.165Z,18.30
2022-10-13T06:25:39.532Z,15.70
2022-10-13T06:28:26.299Z,14.00
2022-10-13T06:31:13.356Z,17.57
2022-10-13T06:34:01.789Z,15.57
2022-10-13T06:36:48.307Z,14.37
2022-10-13T06:39:35.022Z,18.17
2022-10-13T06:42:21.958Z,16.47
2022-10-13T06:45:09.802Z,18.53
2022-10-13T06:47:56.346Z,18.43
2022-10-13T06:50:44.162Z,12.63
2022-10-13T06:53:31.239Z,14.17
2022-10-13T06:56:17.813Z,18.90
2022-10-13T06:59:04.369Z,16.13
2022-10-13T07:01:51.815Z,18.10
2022-10-13T07:04:38.380Z,11.50
2022-10-13T07:07:26.491Z,17.77
2022-10-13T07:10:13.113Z,15.37
2022-10-13T07:12:59.540Z,15.60
2022-10-13T07:15:46.307Z,15.23
2022-10-13T07:18:33.375Z,18.87
2022-10-13T07:21:20.096Z,13.23
2022-10-13T07:24:10.066Z,11.93
2022-10-13T07:26:56.701Z,12.33
2022-10-13T07:29:43.219Z,13.93
2022-10-13T07:32:29.837Z,13.57
2022-10-13T07:35:16.361Z,17.07
2022-10-13T07:38:02.775Z,14.97
2022-10-13T07:40:50.875Z,14.87
2022-10-13T07:43:37.763Z,12.80
2022-10-13T07:46:25.436Z,16.57
2022-10-13T07:49:15.254Z,13.07
2022-10-13T07:52:03.071Z,12.67
2022-10-13T07:54:49.678Z,12.43
2022-10-13T07:57:37.371Z,16.47
2022-10-13T08:00:24.174Z,12.00
2022-10-13T08:03:10.740Z,12.80
2022-10-13T08:05:59.331Z,15.10
2022-10-13T08:08:45.748Z,15.60
2022-10-13T08:11:32.864Z,15.13
2022-10-13T08:14:21.324Z,11.67
2022-10-13T08:17:07.681Z,13.87
2022-10-13T08:19:54.215Z,13.13
2022-10-13T08:22:40.727Z,14.30
2022-10-13T08:25:27.217Z,18.53
2022-10-13T08:28:19.864Z,15.93
2022-10-13T08:31:08.447Z,13.77
2022-10-13T08:33:55.121Z,11.37
2022-10-13T08:36:42.748Z,13.80
2022-10-13T08:39:29.455Z,15.30
2022-10-13T08:42:19.335Z,14.07
2022-10-13T08:45:40.419Z,12.77
2022-10-13T08:48:19.869Z,15.17
2022-10-13T08:51:08.594Z,16.90
2022-10-13T08:53:55.084Z,10.50
2022-10-13T08:56:41.549Z,13.00
2022-10-13T08:59:27.983Z,15.87
2022-10-13T09:02:22.917Z,12.70
2022-10-13T09:05:17.507Z,13.67
2022-10-13T09:08:06.427Z,11.67
2022-10-13T09:10:53.925Z,13.27
2022-10-13T09:13:41.201Z,10.67
2022-10-13T09:16:30.547Z,8.80
2022-10-13T09:19:27.564Z,14.17
2022-10-13T09:22:25.186Z,11.53
2022-10-13T09:25:20.548Z,10.83
2022-10-13T09:28:15.057Z,16.83
2022-10-13T09:31:04.990Z,14.50
2022-10-13T09:34:00.680Z,14.60
2022-10-13T09:36:58.179Z,13.13
2022-10-13T09:39:45.989Z,10.00
2022-10-13T09:42:33.260Z,16.10
2022-10-13T09:45:23.399Z,15.67
2022-10-13T09:48:23.416Z,14.93
2022-10-13T09:51:42.774Z,10.33
2022-10-13T09:54:38.524Z,15.63
2022-10-13T09:57:36.016Z,12.30
2022-10-13T10:00:24.485Z,15.87
2022-10-13T10:03:17.683Z,13.87
2022-10-13T10:06:07.841Z,13.30
2022-10-13T10:09:03.368Z,13.53
2022-10-13T10:11:52.988Z,12.83
2022-10-13T10:14:41.148Z,14.63
2022-10-13T10:17:33.312Z,15.40
2022-10-13T10:20:38.363Z,15.07
2022-10-13T10:23:38.100Z,14.20
2022-10-13T10:26:32.804Z,15.00
2022-10-13T10:29:27.260Z,13.43
2022-10-13T10:32:28.439Z,13.10
2022-10-13T10:35:21.038Z,14.83
2022-10-13T10:38:22.031Z,13.77
2022-10-13T10:41:17.619Z,18.27
2022-10-13T10:44:08.704Z,10.07
2022-10-13T10:47:00.491Z,12.90
2022-10-13T10:49:49.287Z,14.13
2022-10-13T10:52:55.232Z,11.20
2022-10-13T10:55:49.859Z,16.57
2022-10-13T10:58:42.946Z,14.40
2022-10-13T11:01:37.502Z,16.63
2022-10-13T11:04:40.712Z,12.40
2022-10-13T11:07:58.004Z,13.60
2022-10-13T11:10:44.707Z,13.07
2022-10-13T11:13:31.363Z,11.60
2022-10-13T11:16:29.876Z,13.73
2022-10-13T11:19:33.015Z,13.10
2022-10-13T11:22:22.145Z,16.13
2022-10-13T11:25:39.953Z,10.90
2022-10-13T11:28:48.842Z,10.00
2022-10-13T11:31:55.067Z,10.50
2022-10-13T11:34:59.040Z,18.30
2022-10-13T11:38:05.982Z,12.03
2022-10-13T11:41:13.371Z,11.13
2022-10-13T11:44:05.344Z,18.00
2022-10-13T11:47:03.758Z,14.07
2022-10-13T11:50:05.019Z,12.03
2022-10-13T11:53:07.980Z,14.73
2022-10-13T11:55:56.643Z,13.20
2022-10-13T11:58:44.630Z,17.43
2022-10-13T12:01:31.415Z,12.37
2022-10-13T12:04:22.709Z,10.60
2022-10-13T12:07:11.836Z,10.07
2022-10-13T12:09:58.897Z,11.87
2022-10-13T12:12:49.498Z,17.93
2022-10-13T12:15:39.967Z,12.90
2022-10-13T12:18:29.890Z,12.17
2022-10-13T12:21:19.988Z,12.13
2022-10-13T12:24:11.201Z,14.73
2022-10-13T12:26:58.740Z,11.97
2022-10-13T12:29:45.173Z,14.23
2022-10-13T12:32:35.924Z,16.33
2022-10-13T12:35:26.619Z,18.47
2022-10-13T12:38:19.563Z,18.33
2022-10-13T12:41:06.834Z,13.03
2022-10-13T12:43:54.362Z,14.53
2022-10-13T12:46:42.455Z,11.83
2022-10-13T12:49:32.130Z,10.93
2022-10-13T12:52:24.756Z,8.63
2022-10-13T12:55:18.157Z,12.27
2022-10-13T12:58:04.920Z,15.77
2022-10-13T13:01:02.206Z,12.50
2022-10-13T13:03:57.300Z,9.93
2022-10-13T13:06:56.439Z,13.30
2022-10-13T13:09:42.878Z,11.90
2022-10-13T13:12:30.062Z,12.80
2022-10-13T13:15:34.994Z,13.83
2022-10-13T13:18:36.296Z,13.33
2022-10-13T13:21:23.142Z,11.20
2022-10-13T13:24:21.846Z,10.43
2022-10-13T13:27:26.296Z,9.10
2022-10-13T13:30:15.233Z,13.03
2022-10-13T13:33:01.746Z,12.43
2022-10-13T13:35:49.061Z,11.93
2022-10-13T13:38:35.777Z,18.20
2022-10-13T13:41:24.117Z,8.53
2022-10-13T13:44:10.612Z,11.67
2022-10-13T13:46:57.067Z,12.07
2022-10-13T13:49:43.568Z,10.80
2022-10-13T13:52:30.339Z,12.77
2022-10-13T13:55:17.491Z,11.90
2022-10-13T13:58:05.558Z,10.97
2022-10-13T14:00:52.292Z,11.33
2022-10-13T14:03:39.003Z,11.03
2022-10-13T14:06:25.946Z,10.23
2022-10-13T14:09:12.240Z,8.67
2022-10-13T14:11:59.196Z,9.23
2022-10-13T14:14:47.363Z,7.30
2022-10-13T14:17:33.975Z,8.93
2022-10-13T14:20:20.763Z,7.83
2022-10-13T14:23:07.445Z,8.87
2022-10-13T14:25:54.115Z,8.30
2022-10-13T14:28:41.945Z,9.07
2022-10-13T14:31:30.635Z,9.47
2022-10-13T14:34:17.250Z,7.33
2022-10-13T14:37:03.677Z,6.97
2022-10-13T14:39:50.200Z,10.10
2022-10-13T14:42:36.703Z,10.13
2022-10-13T14:45:23.049Z,9.50
2022-10-13T14:48:11.833Z,9.73
2022-10-13T14:50:58.710Z,8.97
2022-10-13T14:53:46.706Z,11.30
2022-10-13T14:56:33.526Z,9.77
2022-10-13T14:59:20.667Z,8.77
2022-10-13T15:02:07.452Z,8.53
2022-10-13T15:04:55.324Z,10.30
2022-10-13T15:07:42.165Z,8.03
2022-10-13T15:10:28.962Z,11.20
2022-10-13T15:13:15.335Z,11.03
2022-10-13T15:16:02.508Z,10.47
2022-10-13T15:18:49.376Z,9.87
2022-10-13T15:21:37.444Z,9.10
2022-10-13T15:24:24.173Z,10.23
2022-10-13T15:27:10.668Z,8.97
2022-10-13T15:29:57.211Z,9.77
2022-10-13T15:32:43.704Z,11.37
2022-10-13T15:35:31.117Z,9.07
2022-10-13T15:38:20.595Z,8.37
2022-10-13T15:41:08.100Z,10.70
2022-10-13T15:43:54.584Z,8.87
2022-10-13T15:46:53.955Z,8.73
2022-10-13T15:49:47.846Z,12.70
2022-10-13T15:52:39.348Z,9.00
2022-10-13T15:55:28.682Z,10.47
2022-10-13T15:58:15.213Z,8.17
2022-10-13T16:01:01.927Z,13.03
2022-10-13T16:03:48.709Z,11.90
2022-10-13T16:06:37.240Z,7.10
2022-10-13T16:09:23.916Z,14.87
2022-10-13T16:12:11.868Z,10.80
2022-10-13T16:14:58.344Z,11.30
2022-10-13T16:17:46.222Z,8.97
2022-10-13T16:20:35.390Z,7.03
2022-10-13T16:23:21.928Z,10.90
2022-10-13T16:26:09.040Z,11.33
2022-10-13T16:28:58.106Z,9.10
2022-10-13T16:31:45.125Z,9.17
2022-10-13T16:34:31.857Z,12.53
2022-10-13T16:37:18.526Z,8.90
2022-10-13T16:40:05.892Z,8.47
2022-10-13T16:42:52.292Z,11.37
2022-10-13T16:45:58.549Z,10.97
2022-10-13T16:48:46.713Z,10.53
2022-10-13T16:51:33.982Z,12.43
2022-10-13T16:54:20.416Z,8.93
2022-10-13T16:57:06.871Z,9.40
2022-10-13T16:59:53.505Z,12.90
2022-10-13T17:02:41.731Z,11.20
2022-10-13T17:05:28.596Z,11.47
2022-10-13T17:08:15.448Z,12.73
2022-10-13T17:11:02.295Z,11.00
2022-10-13T17:13:49.772Z,12.60
2022-10-13T17:16:36.762Z,12.33
2022-10-13T17:19:24.654Z,14.10
2022-10-13T17:22:11.193Z,14.50
2022-10-13T17:24:57.742Z,12.07
2022-10-13T17:27:44.499Z,13.80
2022-10-13T17:30:30.922Z,16.27
2022-10-13T17:33:17.353Z,16.00
2022-10-13T17:36:08.156Z,12.67
2022-10-13T17:38:57.256Z,12.17
2022-10-13T17:41:43.676Z,15.53
2022-10-13T17:44:30.189Z,12.60
2022-10-13T17:47:16.716Z,13.67
2022-10-13T17:50:03.132Z,15.13
2022-10-13T17:52:51.021Z,15.13
2022-10-13T17:55:37.865Z,14.33
2022-10-13T17:58:24.289Z,12.63
2022-10-13T18:01:13.996Z,21.97
2022-10-13T18:04:02.108Z,17.93
2022-10-13T18:06:49.316Z,18.53
2022-10-13T18:09:37.165Z,14.27
2022-10-13T18:12:23.961Z,14.00
2022-10-13T18:15:10.778Z,13.87
2022-10-13T18:17:57.610Z,16.80
2022-10-13T18:20:44.059Z,15.70
2022-10-13T18:23:32.444Z,15.20
2022-10-13T18:26:21.425Z,17.53
2022-10-13T18:29:09.737Z,17.40
2022-10-13T18:31:57.373Z,15.67
2022-10-13T18:34:44.193Z,15.47
2022-10-13T18:37:30.749Z,18.27
2022-10-13T18:40:17.299Z,15.10
2022-10-13T18:43:05.400Z,16.37
2022-10-13T18:45:52.095Z,16.30
2022-10-13T18:48:38.649Z,20.97
2022-10-13T18:51:25.744Z,20.90
2022-10-13T18:54:12.800Z,22.97
2022-10-13T18:56:59.609Z,17.67
2022-10-13T18:59:47.417Z,15.40
2022-10-13T19:02:34.437Z,16.40
2022-10-13T19:05:21.248Z,17.17
2022-10-13T19:08:09.495Z,20.87
2022-10-13T19:10:56.372Z,23.37
2022-10-13T19:13:44.100Z,16.97
2022-10-13T19:16:33.610Z,17.20
2022-10-13T19:19:20.487Z,17.97
2022-10-13T19:22:09.941Z,18.60
2022-10-13T19:24:56.469Z,16.70
2022-10-13T19:27:43.033Z,19.47
2022-10-13T19:30:29.732Z,21.07
2022-10-13T19:33:18.968Z,21.53
2022-10-13T19:36:06.255Z,16.90
2022-10-13T19:38:52.784Z,17.27
2022-10-13T19:41:39.472Z,19.97
2022-10-13T19:44:26.231Z,19.30
2022-10-13T19:47:13.061Z,14.87
2022-10-13T19:50:00.853Z,19.27
2022-10-13T19:52:47.794Z,19.00
2022-10-13T19:55:39.179Z,18.70
2022-10-13T19:58:25.904Z,19.83
2022-10-13T20:01:12.336Z,20.17
2022-10-13T20:03:59.465Z,19.47
2022-10-13T20:06:48.872Z,20.40
2022-10-13T20:09:35.434Z,22.87
2022-10-13T20:12:22.212Z,16.97
2022-10-13T20:15:09.038Z,17.37
2022-10-13T20:17:55.481Z,20.33
2022-10-13T20:20:42.981Z,20.37
2022-10-13T20:23:31.304Z,19.07
2022-10-13T20:26:18.352Z,19.03
2022-10-13T20:29:04.898Z,16.93
2022-10-13T20:31:51.868Z,21.47
2022-10-13T20:34:38.528Z,18.77
2022-10-13T20:37:24.808Z,17.20
2022-10-13T20:40:13.301Z,19.27
2022-10-13T20:42:59.968Z,17.67
2022-10-13T20:45:46.282Z,16.33
2022-10-13T20:48:51.217Z,19.10
2022-10-13T20:51:40.096Z,17.17
2022-10-13T20:54:26.948Z,17.67
2022-10-13T20:57:14.837Z,14.90
2022-10-13T21:00:01.736Z,18.27
2022-10-13T21:02:48.699Z,15.60
2022-10-13T21:05:35.074Z,19.33
2022-10-13T21:08:22.937Z,16.03
2022-10-13T21:11:11.955Z,21.50
2022-10-13T21:13:59.960Z,16.33
2022-10-13T21:16:46.570Z,18.70
2022-10-13T21:19:33.025Z,19.10
2022-10-13T21:22:19.528Z,18.23
2022-10-13T21:25:06.675Z,17.77
2022-10-13T21:27:53.547Z,15.00
2022-10-13T21:30:41.688Z,16.33
2022-10-13T21:33:28.512Z,14.03
2022-10-13T21:36:17.053Z,15.27
2022-10-13T21:39:06.739Z,15.73
2022-10-13T21:41:53.408Z,14.37
2022-10-13T21:44:39.954Z,16.57
2022-10-13T21:47:30.830Z,15.50
2022-10-13T21:50:17.281Z,16.50
2022-10-13T21:53:04.023Z,13.23
2022-10-13T21:55:50.468Z,15.77
2022-10-13T21:58:37.071Z,17.60
2022-10-13T22:01:25.197Z,18.07
2022-10-13T22:04:14.447Z,16.43
2022-10-13T22:07:00.726Z,15.03
2022-10-13T22:09:47.100Z,15.10
2022-10-13T22:12:33.523Z,17.77
2022-10-13T22:15:20.028Z,13.97
2022-10-13T22:18:06.677Z,12.00
2022-10-13T22:20:54.788Z,13.07
2022-10-13T22:23:42.027Z,13.60
2022-10-13T22:26:30.207Z,13.20
2022-10-13T22:29:19.204Z,19.40
2022-10-13T22:32:05.961Z,17.67
2022-10-13T22:34:52.260Z,14.10
2022-10-13T22:37:40.114Z,14.80
2022-10-13T22:40:26.881Z,15.17
2022-10-13T22:43:13.362Z,14.53
2022-10-13T22:46:01.916Z,16.73
2022-10-13T22:48:48.920Z,14.77
2022-10-13T22:51:37.130Z,14.47
2022-10-13T22:54:25.124Z,16.13
2022-10-13T22:57:11.947Z,13.80
2022-10-13T22:59:58.668Z,16.30
2022-10-13T23:02:45.347Z,14.70
2022-10-13T23:05:32.235Z,13.40
2022-10-13T23:08:18.784Z,13.53
2022-10-13T23:11:06.847Z,15.17
2022-10-13T23:13:53.679Z,15.47
2022-10-13T23:16:40.181Z,13.30
2022-10-13T23:19:26.988Z,14.57
2022-10-13T23:22:13.683Z,16.93
2022-10-13T23:25:00.183Z,15.23
2022-10-13T23:27:48.083Z,13.97
2022-10-13T23:30:34.752Z,13.33
2022-10-13T23:33:21.238Z,16.53
2022-10-13T23:36:09.519Z,13.73
2022-10-13T23:38:56.902Z,16.73
2022-10-13T23:41:43.308Z,17.03
2022-10-13T23:44:31.038Z,18.97
2022-10-13T23:47:17.649Z,16.13
2022-10-13T23:50:04.427Z,19.50
2022-10-13T23:52:51.248Z,16.10
2022-10-13T23:55:38.903Z,18.83
2022-10-13T23:58:25.630Z,15.87
